sensor_id;sensor_type;location;lat;lon;timestamp;P1;durP1;ratioP1;P2;durP2;ratioP2
74465;SDS011;62916;50.044;15.938;2023-03-03T00:01:43;7.20;;;4.80;;
74465;SDS011;62916;50.044;15.938;2023-03-03T00:04:14;6.80;;;5.00;;
74465;SDS011;62916;50.044;15.938;2023-03-03T00:06:45;7.30;;;4.60;;
74465;SDS011;62916;50.044;15.938;2023-03-03T00:09:16;6.80;;;4.90;;
74465;SDS011;62916;50.044;15.938;2023-03-03T00:11:47;7.50;;;4.50;;
74465;SDS011;62916;50.044;15.938;2023-03-03T00:14:24;6.90;;;4.40;;
74465;SDS011;62916;50.044;15.938;2023-03-03T00:16:57;7.90;;;4.40;;
74465;SDS011;62916;50.044;15.938;2023-03-03T00:19:40;8.10;;;5.00;;
74465;SDS011;62916;50.044;15.938;2023-03-03T00:22:15;8.40;;;5.00;;
74465;SDS011;62916;50.044;15.938;2023-03-03T00:24:51;6.70;;;4.90;;
74465;SDS011;62916;50.044;15.938;2023-03-03T00:27:25;6.00;;;4.60;;
74465;SDS011;62916;50.044;15.938;2023-03-03T00:29:59;7.60;;;4.70;;
74465;SDS011;62916;50.044;15.938;2023-03-03T00:32:34;6.70;;;4.90;;
74465;SDS011;62916;50.044;15.938;2023-03-03T00:35:19;6.60;;;4.90;;
74465;SDS011;62916;50.044;15.938;2023-03-03T00:37:55;9.10;;;5.40;;
74465;SDS011;62916;50.044;15.938;2023-03-03T00:40:29;7.30;;;5.50;;
74465;SDS011;62916;50.044;15.938;2023-03-03T00:43:12;7.20;;;4.50;;
74465;SDS011;62916;50.044;15.938;2023-03-03T00:45:48;6.80;;;5.10;;
74465;SDS011;62916;50.044;15.938;2023-03-03T00:48:25;6.40;;;4.70;;
74465;SDS011;62916;50.044;15.938;2023-03-03T00:50:57;8.70;;;5.10;;
74465;SDS011;62916;50.044;15.938;2023-03-03T00:53:29;6.60;;;5.40;;
74465;SDS011;62916;50.044;15.938;2023-03-03T00:56:00;6.30;;;4.50;;
74465;SDS011;62916;50.044;15.938;2023-03-03T00:58:31;6.70;;;5.90;;
74465;SDS011;62916;50.044;15.938;2023-03-03T01:01:01;7.60;;;5.60;;
74465;SDS011;62916;50.044;15.938;2023-03-03T01:03:34;7.70;;;5.30;;
74465;SDS011;62916;50.044;15.938;2023-03-03T01:06:05;7.50;;;5.40;;
74465;SDS011;62916;50.044;15.938;2023-03-03T01:08:37;7.60;;;5.10;;
74465;SDS011;62916;50.044;15.938;2023-03-03T01:11:08;6.40;;;4.80;;
74465;SDS011;62916;50.044;15.938;2023-03-03T01:13:43;7.90;;;5.40;;
74465;SDS011;62916;50.044;15.938;2023-03-03T01:16:16;6.60;;;4.90;;
74465;SDS011;62916;50.044;15.938;2023-03-03T01:18:48;7.40;;;4.70;;
74465;SDS011;62916;50.044;15.938;2023-03-03T01:21:19;6.50;;;4.90;;
74465;SDS011;62916;50.044;15.938;2023-03-03T01:23:51;8.00;;;5.80;;
74465;SDS011;62916;50.044;15.938;2023-03-03T01:26:21;8.70;;;5.10;;
74465;SDS011;62916;50.044;15.938;2023-03-03T01:28:52;5.90;;;4.50;;
74465;SDS011;62916;50.044;15.938;2023-03-03T01:31:23;9.00;;;6.00;;
74465;SDS011;62916;50.044;15.938;2023-03-03T01:33:55;7.80;;;4.80;;
74465;SDS011;62916;50.044;15.938;2023-03-03T01:36:26;7.60;;;5.20;;
74465;SDS011;62916;50.044;15.938;2023-03-03T01:38:57;7.90;;;5.10;;
74465;SDS011;62916;50.044;15.938;2023-03-03T01:41:29;5.90;;;4.40;;
74465;SDS011;62916;50.044;15.938;2023-03-03T01:44:01;7.20;;;4.40;;
74465;SDS011;62916;50.044;15.938;2023-03-03T01:46:46;7.70;;;5.50;;
74465;SDS011;62916;50.044;15.938;2023-03-03T01:49:24;6.90;;;5.30;;
74465;SDS011;62916;50.044;15.938;2023-03-03T01:51:59;6.70;;;4.40;;
74465;SDS011;62916;50.044;15.938;2023-03-03T01:54:33;7.40;;;5.00;;
74465;SDS011;62916;50.044;15.938;2023-03-03T01:57:09;6.80;;;4.50;;
74465;SDS011;62916;50.044;15.938;2023-03-03T01:59:49;5.70;;;4.40;;
74465;SDS011;62916;50.044;15.938;2023-03-03T02:02:21;8.10;;;5.10;;
74465;SDS011;62916;50.044;15.938;2023-03-03T02:04:55;6.90;;;4.60;;
74465;SDS011;62916;50.044;15.938;2023-03-03T02:07:26;5.90;;;4.60;;
74465;SDS011;62916;50.044;15.938;2023-03-03T02:10:02;5.80;;;4.20;;
74465;SDS011;62916;50.044;15.938;2023-03-03T02:12:39;7.80;;;4.80;;
74465;SDS011;62916;50.044;15.938;2023-03-03T02:15:17;7.20;;;4.90;;
74465;SDS011;62916;50.044;15.938;2023-03-03T02:17:51;6.80;;;4.90;;
74465;SDS011;62916;50.044;15.938;2023-03-03T02:20:27;6.90;;;5.10;;
74465;SDS011;62916;50.044;15.938;2023-03-03T02:23:06;6.50;;;4.60;;
74465;SDS011;62916;50.044;15.938;2023-03-03T02:25:42;7.00;;;6.20;;
74465;SDS011;62916;50.044;15.938;2023-03-03T02:28:19;6.90;;;5.00;;
74465;SDS011;62916;50.044;15.938;2023-03-03T02:30:52;6.80;;;4.80;;
74465;SDS011;62916;50.044;15.938;2023-03-03T02:33:24;6.80;;;4.60;;
74465;SDS011;62916;50.044;15.938;2023-03-03T02:35:58;6.40;;;4.50;;
74465;SDS011;62916;50.044;15.938;2023-03-03T02:38:29;7.00;;;5.30;;
74465;SDS011;62916;50.044;15.938;2023-03-03T02:41:06;7.50;;;5.40;;
74465;SDS011;62916;50.044;15.938;2023-03-03T02:43:44;7.40;;;5.20;;
74465;SDS011;62916;50.044;15.938;2023-03-03T02:46:19;6.60;;;5.10;;
74465;SDS011;62916;50.044;15.938;2023-03-03T02:48:49;6.40;;;4.70;;
74465;SDS011;62916;50.044;15.938;2023-03-03T02:51:20;7.10;;;4.80;;
74465;SDS011;62916;50.044;15.938;2023-03-03T02:53:52;6.80;;;4.60;;
74465;SDS011;62916;50.044;15.938;2023-03-03T02:56:23;7.60;;;4.80;;
74465;SDS011;62916;50.044;15.938;2023-03-03T02:58:54;7.10;;;5.10;;
74465;SDS011;62916;50.044;15.938;2023-03-03T03:01:25;6.70;;;5.00;;
74465;SDS011;62916;50.044;15.938;2023-03-03T03:03:56;6.80;;;4.60;;
74465;SDS011;62916;50.044;15.938;2023-03-03T03:06:27;5.90;;;4.20;;
74465;SDS011;62916;50.044;15.938;2023-03-03T03:08:57;6.90;;;4.50;;
74465;SDS011;62916;50.044;15.938;2023-03-03T03:11:28;5.80;;;4.50;;
74465;SDS011;62916;50.044;15.938;2023-03-03T03:13:59;7.30;;;4.90;;
74465;SDS011;62916;50.044;15.938;2023-03-03T03:16:30;7.10;;;4.80;;
74465;SDS011;62916;50.044;15.938;2023-03-03T03:19:02;6.50;;;4.60;;
74465;SDS011;62916;50.044;15.938;2023-03-03T03:21:34;6.90;;;5.10;;
74465;SDS011;62916;50.044;15.938;2023-03-03T03:24:05;6.80;;;4.70;;
74465;SDS011;62916;50.044;15.938;2023-03-03T03:26:36;7.80;;;5.30;;
74465;SDS011;62916;50.044;15.938;2023-03-03T03:29:07;6.20;;;4.60;;
74465;SDS011;62916;50.044;15.938;2023-03-03T03:31:39;7.00;;;4.80;;
74465;SDS011;62916;50.044;15.938;2023-03-03T03:34:10;6.20;;;4.70;;
74465;SDS011;62916;50.044;15.938;2023-03-03T03:36:41;6.10;;;4.50;;
74465;SDS011;62916;50.044;15.938;2023-03-03T03:39:13;5.70;;;4.30;;
74465;SDS011;62916;50.044;15.938;2023-03-03T03:41:44;6.20;;;4.40;;
74465;SDS011;62916;50.044;15.938;2023-03-03T03:44:15;7.00;;;4.70;;
74465;SDS011;62916;50.044;15.938;2023-03-03T03:46:46;7.40;;;4.70;;
74465;SDS011;62916;50.044;15.938;2023-03-03T03:49:17;7.80;;;5.30;;
74465;SDS011;62916;50.044;15.938;2023-03-03T03:51:49;7.70;;;5.10;;
74465;SDS011;62916;50.044;15.938;2023-03-03T03:54:20;6.60;;;4.40;;
74465;SDS011;62916;50.044;15.938;2023-03-03T03:56:51;7.00;;;4.80;;
74465;SDS011;62916;50.044;15.938;2023-03-03T03:59:22;8.20;;;4.90;;
74465;SDS011;62916;50.044;15.938;2023-03-03T04:01:53;6.60;;;4.80;;
74465;SDS011;62916;50.044;15.938;2023-03-03T04:04:24;7.00;;;4.90;;
74465;SDS011;62916;50.044;15.938;2023-03-03T04:06:55;7.70;;;5.20;;
74465;SDS011;62916;50.044;15.938;2023-03-03T04:09:26;5.80;;;4.40;;
74465;SDS011;62916;50.044;15.938;2023-03-03T04:11:57;7.40;;;5.10;;
74465;SDS011;62916;50.044;15.938;2023-03-03T04:14:27;6.80;;;4.70;;
74465;SDS011;62916;50.044;15.938;2023-03-03T04:16:58;7.20;;;4.70;;
74465;SDS011;62916;50.044;15.938;2023-03-03T04:19:29;6.40;;;4.90;;
74465;SDS011;62916;50.044;15.938;2023-03-03T04:22:00;6.70;;;5.10;;
74465;SDS011;62916;50.044;15.938;2023-03-03T04:24:34;7.40;;;4.70;;
74465;SDS011;62916;50.044;15.938;2023-03-03T04:27:04;7.10;;;4.80;;
74465;SDS011;62916;50.044;15.938;2023-03-03T04:29:36;6.80;;;4.40;;
74465;SDS011;62916;50.044;15.938;2023-03-03T04:32:07;7.30;;;4.80;;
74465;SDS011;62916;50.044;15.938;2023-03-03T04:34:39;6.90;;;4.90;;
74465;SDS011;62916;50.044;15.938;2023-03-03T04:37:10;5.90;;;4.60;;
74465;SDS011;62916;50.044;15.938;2023-03-03T04:39:41;8.00;;;4.90;;
74465;SDS011;62916;50.044;15.938;2023-03-03T04:42:12;7.20;;;5.00;;
74465;SDS011;62916;50.044;15.938;2023-03-03T04:44:43;7.60;;;5.90;;
74465;SDS011;62916;50.044;15.938;2023-03-03T04:47:14;9.80;;;5.00;;
74465;SDS011;62916;50.044;15.938;2023-03-03T04:49:45;8.00;;;5.00;;
74465;SDS011;62916;50.044;15.938;2023-03-03T04:52:15;8.40;;;5.30;;
74465;SDS011;62916;50.044;15.938;2023-03-03T04:54:46;7.00;;;4.70;;
74465;SDS011;62916;50.044;15.938;2023-03-03T04:57:17;7.00;;;5.30;;
74465;SDS011;62916;50.044;15.938;2023-03-03T04:59:48;7.10;;;5.10;;
74465;SDS011;62916;50.044;15.938;2023-03-03T05:02:19;7.80;;;5.90;;
74465;SDS011;62916;50.044;15.938;2023-03-03T05:04:50;8.10;;;5.40;;
74465;SDS011;62916;50.044;15.938;2023-03-03T05:07:21;7.10;;;5.70;;
74465;SDS011;62916;50.044;15.938;2023-03-03T05:09:52;7.80;;;5.60;;
74465;SDS011;62916;50.044;15.938;2023-03-03T05:12:24;7.30;;;5.40;;
74465;SDS011;62916;50.044;15.938;2023-03-03T05:14:55;7.80;;;5.20;;
74465;SDS011;62916;50.044;15.938;2023-03-03T05:17:26;10.90;;;5.20;;
74465;SDS011;62916;50.044;15.938;2023-03-03T05:19:57;8.50;;;4.90;;
74465;SDS011;62916;50.044;15.938;2023-03-03T05:22:28;10.70;;;6.00;;
74465;SDS011;62916;50.044;15.938;2023-03-03T05:24:59;9.00;;;5.40;;
74465;SDS011;62916;50.044;15.938;2023-03-03T05:27:29;8.40;;;5.30;;
74465;SDS011;62916;50.044;15.938;2023-03-03T05:30:00;9.40;;;5.20;;
74465;SDS011;62916;50.044;15.938;2023-03-03T05:32:32;48.60;;;9.00;;
74465;SDS011;62916;50.044;15.938;2023-03-03T05:35:04;44.00;;;8.80;;
74465;SDS011;62916;50.044;15.938;2023-03-03T05:37:35;51.10;;;9.40;;
74465;SDS011;62916;50.044;15.938;2023-03-03T05:40:10;53.50;;;9.30;;
74465;SDS011;62916;50.044;15.938;2023-03-03T05:42:42;53.10;;;9.60;;
74465;SDS011;62916;50.044;15.938;2023-03-03T05:45:13;44.60;;;8.90;;
74465;SDS011;62916;50.044;15.938;2023-03-03T05:47:47;45.10;;;9.80;;
74465;SDS011;62916;50.044;15.938;2023-03-03T05:50:19;42.50;;;8.80;;
74465;SDS011;62916;50.044;15.938;2023-03-03T05:52:51;38.20;;;8.50;;
74465;SDS011;62916;50.044;15.938;2023-03-03T05:55:22;40.20;;;8.50;;
74465;SDS011;62916;50.044;15.938;2023-03-03T05:57:53;30.30;;;8.40;;
74465;SDS011;62916;50.044;15.938;2023-03-03T06:00:24;37.00;;;7.80;;
74465;SDS011;62916;50.044;15.938;2023-03-03T06:02:55;35.80;;;7.70;;
74465;SDS011;62916;50.044;15.938;2023-03-03T06:05:26;38.40;;;8.40;;
74465;SDS011;62916;50.044;15.938;2023-03-03T06:07:57;30.50;;;7.60;;
74465;SDS011;62916;50.044;15.938;2023-03-03T06:10:28;23.90;;;6.70;;
74465;SDS011;62916;50.044;15.938;2023-03-03T06:12:59;35.70;;;7.50;;
74465;SDS011;62916;50.044;15.938;2023-03-03T06:15:30;31.00;;;8.20;;
74465;SDS011;62916;50.044;15.938;2023-03-03T06:18:02;28.70;;;8.30;;
74465;SDS011;62916;50.044;15.938;2023-03-03T06:20:33;27.50;;;7.80;;
74465;SDS011;62916;50.044;15.938;2023-03-03T06:23:05;24.70;;;6.90;;
74465;SDS011;62916;50.044;15.938;2023-03-03T06:25:37;23.70;;;7.30;;
74465;SDS011;62916;50.044;15.938;2023-03-03T06:28:08;19.50;;;6.30;;
74465;SDS011;62916;50.044;15.938;2023-03-03T06:30:40;24.00;;;7.20;;
74465;SDS011;62916;50.044;15.938;2023-03-03T06:33:11;20.60;;;6.80;;
74465;SDS011;62916;50.044;15.938;2023-03-03T06:35:42;18.80;;;6.20;;
74465;SDS011;62916;50.044;15.938;2023-03-03T06:38:17;18.60;;;6.30;;
74465;SDS011;62916;50.044;15.938;2023-03-03T06:40:48;16.20;;;6.20;;
74465;SDS011;62916;50.044;15.938;2023-03-03T06:43:21;15.20;;;7.30;;
74465;SDS011;62916;50.044;15.938;2023-03-03T06:45:52;22.40;;;6.70;;
74465;SDS011;62916;50.044;15.938;2023-03-03T06:48:23;18.20;;;6.70;;
74465;SDS011;62916;50.044;15.938;2023-03-03T06:50:54;18.70;;;6.30;;
74465;SDS011;62916;50.044;15.938;2023-03-03T06:53:25;23.50;;;6.70;;
74465;SDS011;62916;50.044;15.938;2023-03-03T06:55:57;20.10;;;5.90;;
74465;SDS011;62916;50.044;15.938;2023-03-03T06:58:28;19.50;;;6.40;;
74465;SDS011;62916;50.044;15.938;2023-03-03T07:01:00;18.80;;;6.50;;
74465;SDS011;62916;50.044;15.938;2023-03-03T07:03:32;14.20;;;5.30;;
74465;SDS011;62916;50.044;15.938;2023-03-03T07:06:07;14.90;;;6.10;;
74465;SDS011;62916;50.044;15.938;2023-03-03T07:08:44;17.30;;;6.40;;
74465;SDS011;62916;50.044;15.938;2023-03-03T07:11:16;15.40;;;6.10;;
74465;SDS011;62916;50.044;15.938;2023-03-03T07:13:49;15.70;;;5.70;;
74465;SDS011;62916;50.044;15.938;2023-03-03T07:16:22;13.60;;;6.20;;
74465;SDS011;62916;50.044;15.938;2023-03-03T07:18:55;18.20;;;6.30;;
74465;SDS011;62916;50.044;15.938;2023-03-03T07:21:32;16.00;;;6.40;;
74465;SDS011;62916;50.044;15.938;2023-03-03T07:24:09;15.30;;;5.90;;
74465;SDS011;62916;50.044;15.938;2023-03-03T07:26:53;13.40;;;5.60;;
74465;SDS011;62916;50.044;15.938;2023-03-03T07:29:28;17.90;;;6.10;;
74465;SDS011;62916;50.044;15.938;2023-03-03T07:32:00;13.40;;;7.00;;
74465;SDS011;62916;50.044;15.938;2023-03-03T07:34:38;15.30;;;5.90;;
74465;SDS011;62916;50.044;15.938;2023-03-03T07:37:16;14.70;;;6.30;;
74465;SDS011;62916;50.044;15.938;2023-03-03T07:39:50;12.80;;;5.50;;
74465;SDS011;62916;50.044;15.938;2023-03-03T07:42:21;10.70;;;5.60;;
74465;SDS011;62916;50.044;15.938;2023-03-03T07:44:56;11.60;;;5.50;;
74465;SDS011;62916;50.044;15.938;2023-03-03T07:47:29;10.50;;;5.30;;
74465;SDS011;62916;50.044;15.938;2023-03-03T07:50:14;11.80;;;6.30;;
74465;SDS011;62916;50.044;15.938;2023-03-03T07:52:48;13.70;;;5.60;;
74465;SDS011;62916;50.044;15.938;2023-03-03T07:55:26;13.30;;;6.90;;
74465;SDS011;62916;50.044;15.938;2023-03-03T07:58:13;10.00;;;5.60;;
74465;SDS011;62916;50.044;15.938;2023-03-03T08:03:56;10.40;;;5.60;;
74465;SDS011;62916;50.044;15.938;2023-03-03T08:06:30;9.90;;;5.50;;
74465;SDS011;62916;50.044;15.938;2023-03-03T08:09:26;9.40;;;5.40;;
74465;SDS011;62916;50.044;15.938;2023-03-03T08:12:22;10.70;;;5.90;;
74465;SDS011;62916;50.044;15.938;2023-03-03T08:15:07;8.30;;;5.20;;
74465;SDS011;62916;50.044;15.938;2023-03-03T08:17:46;9.40;;;5.50;;
74465;SDS011;62916;50.044;15.938;2023-03-03T08:20:37;11.50;;;5.70;;
74465;SDS011;62916;50.044;15.938;2023-03-03T08:23:12;10.50;;;5.30;;
74465;SDS011;62916;50.044;15.938;2023-03-03T08:25:45;9.10;;;5.90;;
74465;SDS011;62916;50.044;15.938;2023-03-03T08:28:16;11.60;;;6.10;;
74465;SDS011;62916;50.044;15.938;2023-03-03T08:30:48;9.80;;;5.20;;
74465;SDS011;62916;50.044;15.938;2023-03-03T08:33:35;9.10;;;5.40;;
74465;SDS011;62916;50.044;15.938;2023-03-03T08:36:07;10.40;;;6.20;;
74465;SDS011;62916;50.044;15.938;2023-03-03T08:38:40;11.50;;;5.80;;
74465;SDS011;62916;50.044;15.938;2023-03-03T08:41:11;9.00;;;5.70;;
74465;SDS011;62916;50.044;15.938;2023-03-03T08:43:42;11.20;;;6.10;;
74465;SDS011;62916;50.044;15.938;2023-03-03T08:46:13;11.00;;;5.70;;
74465;SDS011;62916;50.044;15.938;2023-03-03T08:48:44;9.00;;;5.60;;
74465;SDS011;62916;50.044;15.938;2023-03-03T08:51:15;9.80;;;5.40;;
74465;SDS011;62916;50.044;15.938;2023-03-03T08:53:46;9.60;;;6.10;;
74465;SDS011;62916;50.044;15.938;2023-03-03T08:56:17;10.60;;;5.90;;
74465;SDS011;62916;50.044;15.938;2023-03-03T08:58:48;9.60;;;5.20;;
74465;SDS011;62916;50.044;15.938;2023-03-03T09:01:30;11.20;;;6.00;;
74465;SDS011;62916;50.044;15.938;2023-03-03T09:04:01;10.60;;;5.50;;
74465;SDS011;62916;50.044;15.938;2023-03-03T09:06:32;10.00;;;5.90;;
74465;SDS011;62916;50.044;15.938;2023-03-03T09:09:03;8.90;;;6.00;;
74465;SDS011;62916;50.044;15.938;2023-03-03T09:11:34;9.30;;;5.70;;
74465;SDS011;62916;50.044;15.938;2023-03-03T09:14:10;8.70;;;5.90;;
74465;SDS011;62916;50.044;15.938;2023-03-03T09:16:44;9.80;;;6.20;;
74465;SDS011;62916;50.044;15.938;2023-03-03T09:19:20;9.50;;;5.50;;
74465;SDS011;62916;50.044;15.938;2023-03-03T09:21:55;10.20;;;5.70;;
74465;SDS011;62916;50.044;15.938;2023-03-03T09:24:30;9.30;;;6.00;;
74465;SDS011;62916;50.044;15.938;2023-03-03T09:27:06;10.30;;;5.60;;
74465;SDS011;62916;50.044;15.938;2023-03-03T09:29:46;8.30;;;5.70;;
74465;SDS011;62916;50.044;15.938;2023-03-03T09:32:23;9.50;;;6.20;;
74465;SDS011;62916;50.044;15.938;2023-03-03T09:38:14;9.20;;;5.50;;
74465;SDS011;62916;50.044;15.938;2023-03-03T09:41:03;8.70;;;5.40;;
74465;SDS011;62916;50.044;15.938;2023-03-03T09:43:46;9.00;;;5.70;;
74465;SDS011;62916;50.044;15.938;2023-03-03T09:46:29;8.30;;;5.60;;
74465;SDS011;62916;50.044;15.938;2023-03-03T09:49:11;9.30;;;6.10;;
74465;SDS011;62916;50.044;15.938;2023-03-03T09:52:01;9.40;;;5.80;;
74465;SDS011;62916;50.044;15.938;2023-03-03T09:54:49;9.40;;;5.70;;
74465;SDS011;62916;50.044;15.938;2023-03-03T09:57:32;8.10;;;5.30;;
74465;SDS011;62916;50.044;15.938;2023-03-03T10:00:30;9.30;;;5.30;;
74465;SDS011;62916;50.044;15.938;2023-03-03T10:03:20;10.40;;;6.20;;
74465;SDS011;62916;50.044;15.938;2023-03-03T10:06:08;8.50;;;6.00;;
74465;SDS011;62916;50.044;15.938;2023-03-03T10:08:50;8.80;;;5.80;;
74465;SDS011;62916;50.044;15.938;2023-03-03T10:11:30;9.00;;;6.60;;
74465;SDS011;62916;50.044;15.938;2023-03-03T10:14:19;9.70;;;5.70;;
74465;SDS011;62916;50.044;15.938;2023-03-03T10:19:47;10.00;;;5.80;;
74465;SDS011;62916;50.044;15.938;2023-03-03T10:22:32;8.80;;;5.90;;
74465;SDS011;62916;50.044;15.938;2023-03-03T10:25:15;9.80;;;6.20;;
74465;SDS011;62916;50.044;15.938;2023-03-03T10:27:59;10.10;;;6.50;;
74465;SDS011;62916;50.044;15.938;2023-03-03T10:30:42;9.50;;;6.50;;
74465;SDS011;62916;50.044;15.938;2023-03-03T10:33:36;10.10;;;6.40;;
74465;SDS011;62916;50.044;15.938;2023-03-03T10:36:21;10.20;;;6.60;;
74465;SDS011;62916;50.044;15.938;2023-03-03T10:39:02;8.50;;;5.80;;
74465;SDS011;62916;50.044;15.938;2023-03-03T10:41:52;9.60;;;6.80;;
74465;SDS011;62916;50.044;15.938;2023-03-03T10:44:43;10.40;;;6.20;;
74465;SDS011;62916;50.044;15.938;2023-03-03T10:47:39;10.80;;;6.50;;
74465;SDS011;62916;50.044;15.938;2023-03-03T10:50:29;9.00;;;5.70;;
74465;SDS011;62916;50.044;15.938;2023-03-03T10:53:15;10.70;;;7.10;;
74465;SDS011;62916;50.044;15.938;2023-03-03T10:55:55;9.60;;;5.60;;
74465;SDS011;62916;50.044;15.938;2023-03-03T10:58:45;9.80;;;6.20;;
74465;SDS011;62916;50.044;15.938;2023-03-03T11:01:28;10.40;;;6.30;;
74465;SDS011;62916;50.044;15.938;2023-03-03T11:04:19;10.30;;;6.70;;
74465;SDS011;62916;50.044;15.938;2023-03-03T11:07:00;9.00;;;6.20;;
74465;SDS011;62916;50.044;15.938;2023-03-03T11:09:43;8.50;;;6.10;;
74465;SDS011;62916;50.044;15.938;2023-03-03T11:12:30;9.10;;;6.30;;
74465;SDS011;62916;50.044;15.938;2023-03-03T11:15:17;9.10;;;5.90;;
74465;SDS011;62916;50.044;15.938;2023-03-03T11:18:05;9.60;;;5.90;;
74465;SDS011;62916;50.044;15.938;2023-03-03T11:20:45;9.00;;;6.00;;
74465;SDS011;62916;50.044;15.938;2023-03-03T11:23:34;8.80;;;6.00;;
74465;SDS011;62916;50.044;15.938;2023-03-03T11:26:19;9.60;;;6.60;;
74465;SDS011;62916;50.044;15.938;2023-03-03T11:29:04;9.00;;;5.90;;
74465;SDS011;62916;50.044;15.938;2023-03-03T11:31:47;8.40;;;5.90;;
74465;SDS011;62916;50.044;15.938;2023-03-03T11:34:31;9.60;;;6.80;;
74465;SDS011;62916;50.044;15.938;2023-03-03T11:37:20;8.80;;;6.30;;
74465;SDS011;62916;50.044;15.938;2023-03-03T11:42:25;8.00;;;6.30;;
74465;SDS011;62916;50.044;15.938;2023-03-03T11:45:04;9.70;;;6.70;;
74465;SDS011;62916;50.044;15.938;2023-03-03T11:47:46;9.70;;;6.00;;
74465;SDS011;62916;50.044;15.938;2023-03-03T11:50:26;8.30;;;6.10;;
74465;SDS011;62916;50.044;15.938;2023-03-03T11:53:05;11.40;;;7.10;;
74465;SDS011;62916;50.044;15.938;2023-03-03T11:55:51;9.40;;;6.30;;
74465;SDS011;62916;50.044;15.938;2023-03-03T11:58:31;8.90;;;6.10;;
74465;SDS011;62916;50.044;15.938;2023-03-03T12:01:11;9.60;;;6.80;;
74465;SDS011;62916;50.044;15.938;2023-03-03T12:03:49;8.90;;;6.10;;
74465;SDS011;62916;50.044;15.938;2023-03-03T12:06:28;9.50;;;6.10;;
74465;SDS011;62916;50.044;15.938;2023-03-03T12:12:09;10.20;;;6.10;;
74465;SDS011;62916;50.044;15.938;2023-03-03T12:14:51;10.50;;;6.80;;
74465;SDS011;62916;50.044;15.938;2023-03-03T12:17:38;10.10;;;6.70;;
74465;SDS011;62916;50.044;15.938;2023-03-03T12:20:27;9.50;;;6.70;;
74465;SDS011;62916;50.044;15.938;2023-03-03T12:23:09;10.00;;;6.80;;
74465;SDS011;62916;50.044;15.938;2023-03-03T12:25:57;8.80;;;6.20;;
74465;SDS011;62916;50.044;15.938;2023-03-03T12:28:34;10.20;;;6.60;;
74465;SDS011;62916;50.044;15.938;2023-03-03T12:31:13;10.70;;;6.50;;
74465;SDS011;62916;50.044;15.938;2023-03-03T12:33:53;9.80;;;6.30;;
74465;SDS011;62916;50.044;15.938;2023-03-03T12:36:39;10.40;;;7.60;;
74465;SDS011;62916;50.044;15.938;2023-03-03T12:39:22;8.90;;;6.50;;
74465;SDS011;62916;50.044;15.938;2023-03-03T12:42:04;9.60;;;6.40;;
74465;SDS011;62916;50.044;15.938;2023-03-03T12:44:40;10.00;;;6.50;;
74465;SDS011;62916;50.044;15.938;2023-03-03T12:47:19;8.70;;;6.40;;
74465;SDS011;62916;50.044;15.938;2023-03-03T12:49:58;8.30;;;6.50;;
74465;SDS011;62916;50.044;15.938;2023-03-03T12:55:17;9.40;;;6.00;;
74465;SDS011;62916;50.044;15.938;2023-03-03T12:57:57;8.10;;;6.00;;
74465;SDS011;62916;50.044;15.938;2023-03-03T13:00:37;8.20;;;6.20;;
74465;SDS011;62916;50.044;15.938;2023-03-03T13:03:19;9.80;;;6.00;;
74465;SDS011;62916;50.044;15.938;2023-03-03T13:06:09;10.40;;;6.70;;
74465;SDS011;62916;50.044;15.938;2023-03-03T13:08:55;10.40;;;6.50;;
74465;SDS011;62916;50.044;15.938;2023-03-03T13:11:38;10.70;;;6.60;;
74465;SDS011;62916;50.044;15.938;2023-03-03T13:14:23;10.00;;;6.10;;
74465;SDS011;62916;50.044;15.938;2023-03-03T13:17:04;9.40;;;6.50;;
74465;SDS011;62916;50.044;15.938;2023-03-03T13:19:48;11.00;;;6.90;;
74465;SDS011;62916;50.044;15.938;2023-03-03T13:22:35;8.90;;;6.40;;
74465;SDS011;62916;50.044;15.938;2023-03-03T13:25:16;9.30;;;6.50;;
74465;SDS011;62916;50.044;15.938;2023-03-03T13:28:00;9.40;;;6.50;;
74465;SDS011;62916;50.044;15.938;2023-03-03T13:30:36;9.30;;;6.50;;
74465;SDS011;62916;50.044;15.938;2023-03-03T13:33:15;9.50;;;6.40;;
74465;SDS011;62916;50.044;15.938;2023-03-03T13:35:54;10.70;;;6.60;;
74465;SDS011;62916;50.044;15.938;2023-03-03T13:38:28;8.90;;;6.40;;
74465;SDS011;62916;50.044;15.938;2023-03-03T13:41:05;9.80;;;7.20;;
74465;SDS011;62916;50.044;15.938;2023-03-03T13:43:44;8.70;;;7.20;;
74465;SDS011;62916;50.044;15.938;2023-03-03T13:46:20;8.80;;;6.50;;
74465;SDS011;62916;50.044;15.938;2023-03-03T13:49:06;7.30;;;5.90;;
74465;SDS011;62916;50.044;15.938;2023-03-03T13:51:49;9.80;;;6.60;;
74465;SDS011;62916;50.044;15.938;2023-03-03T13:54:35;10.20;;;6.60;;
74465;SDS011;62916;50.044;15.938;2023-03-03T13:57:26;9.90;;;6.70;;
74465;SDS011;62916;50.044;15.938;2023-03-03T14:00:17;9.30;;;6.30;;
74465;SDS011;62916;50.044;15.938;2023-03-03T14:03:05;9.30;;;6.30;;
74465;SDS011;62916;50.044;15.938;2023-03-03T14:05:45;9.60;;;6.60;;
74465;SDS011;62916;50.044;15.938;2023-03-03T14:08:22;10.30;;;6.60;;
74465;SDS011;62916;50.044;15.938;2023-03-03T14:11:04;10.30;;;6.90;;
74465;SDS011;62916;50.044;15.938;2023-03-03T14:13:41;10.90;;;7.00;;
74465;SDS011;62916;50.044;15.938;2023-03-03T14:16:28;9.30;;;6.60;;
74465;SDS011;62916;50.044;15.938;2023-03-03T14:19:11;10.30;;;7.80;;
74465;SDS011;62916;50.044;15.938;2023-03-03T14:21:48;8.20;;;5.90;;
74465;SDS011;62916;50.044;15.938;2023-03-03T14:24:31;9.40;;;6.60;;
74465;SDS011;62916;50.044;15.938;2023-03-03T14:33:17;9.70;;;6.40;;
74465;SDS011;62916;50.044;15.938;2023-03-03T14:36:09;8.70;;;7.00;;
74465;SDS011;62916;50.044;15.938;2023-03-03T14:38:49;7.40;;;5.40;;
74465;SDS011;62916;50.044;15.938;2023-03-03T14:41:21;8.80;;;6.00;;
74465;SDS011;62916;50.044;15.938;2023-03-03T14:49:51;7.80;;;5.00;;
74465;SDS011;62916;50.044;15.938;2023-03-03T14:52:24;8.80;;;5.80;;
74465;SDS011;62916;50.044;15.938;2023-03-03T14:54:56;9.10;;;6.30;;
74465;SDS011;62916;50.044;15.938;2023-03-03T14:57:39;8.10;;;6.10;;
74465;SDS011;62916;50.044;15.938;2023-03-03T15:00:31;7.00;;;5.30;;
74465;SDS011;62916;50.044;15.938;2023-03-03T15:03:04;65.70;;;12.60;;
74465;SDS011;62916;50.044;15.938;2023-03-03T15:05:49;18.00;;;6.70;;
74465;SDS011;62916;50.044;15.938;2023-03-03T15:08:29;25.30;;;7.10;;
74465;SDS011;62916;50.044;15.938;2023-03-03T15:11:12;28.40;;;7.60;;
74465;SDS011;62916;50.044;15.938;2023-03-03T15:13:49;22.60;;;7.70;;
74465;SDS011;62916;50.044;15.938;2023-03-03T15:16:21;18.50;;;7.30;;
74465;SDS011;62916;50.044;15.938;2023-03-03T15:19:13;17.00;;;7.50;;
74465;SDS011;62916;50.044;15.938;2023-03-03T15:22:00;20.00;;;7.10;;
74465;SDS011;62916;50.044;15.938;2023-03-03T15:24:39;21.00;;;6.90;;
74465;SDS011;62916;50.044;15.938;2023-03-03T15:27:19;20.50;;;7.30;;
74465;SDS011;62916;50.044;15.938;2023-03-03T15:30:00;15.90;;;6.90;;
74465;SDS011;62916;50.044;15.938;2023-03-03T15:32:40;25.80;;;7.10;;
74465;SDS011;62916;50.044;15.938;2023-03-03T15:35:22;18.10;;;7.70;;
74465;SDS011;62916;50.044;15.938;2023-03-03T15:38:03;13.90;;;6.70;;
74465;SDS011;62916;50.044;15.938;2023-03-03T15:40:46;18.20;;;7.50;;
74465;SDS011;62916;50.044;15.938;2023-03-03T15:43:24;15.10;;;6.50;;
74465;SDS011;62916;50.044;15.938;2023-03-03T15:46:04;20.30;;;7.00;;
74465;SDS011;62916;50.044;15.938;2023-03-03T15:51:45;17.80;;;6.90;;
74465;SDS011;62916;50.044;15.938;2023-03-03T15:54:38;16.90;;;7.00;;
74465;SDS011;62916;50.044;15.938;2023-03-03T15:57:19;20.10;;;7.20;;
74465;SDS011;62916;50.044;15.938;2023-03-03T16:02:59;24.20;;;7.90;;